Time;durP1;ratioP1;P1;durP2;ratioP2;P2;SDS_P1;SDS_P2;PMS_P1;PMS_P2;Temp;Humidity;BMP_temperature;BMP_pressure;BME280_temperature;BME280_humidity;BME280_pressure;Samples;Min_cycle;Max_cycle;Signal;HPM_P1;HPM_P2
2023/06/22 00:01:14;;;;;;;19.95;14.05;;;18.10;99.90;;;;;;5073344;28;20703;-72
2023/06/22 00:03:40;;;;;;;14.93;12.40;;;18.20;99.90;;;;;;5073261;28;20266;-71
2023/06/22 00:06:07;;;;;;;16.75;12.60;;;18.10;99.90;;;;;;5073496;28;20225;-71
2023/06/22 00:08:33;;;;;;;14.38;12.75;;;18.00;99.90;;;;;;5073247;28;20661;-71
2023/06/22 00:11:00;;;;;;;14.65;13.10;;;18.10;99.90;;;;;;5073525;28;20197;-72
2023/06/22 00:13:27;;;;;;;14.98;13.52;;;18.10;99.90;;;;;;5073463;28;20197;-72
2023/06/22 00:15:55;;;;;;;13.50;12.20;;;18.10;99.90;;;;;;5073349;28;20201;-71
2023/06/22 00:18:21;;;;;;;14.48;13.07;;;18.00;99.90;;;;;;5073170;28;20193;-71
2023/06/22 00:20:48;;;;;;;13.32;11.77;;;18.00;99.90;;;;;;5073205;28;20205;-71
2023/06/22 00:23:15;;;;;;;15.30;12.05;;;17.90;99.90;;;;;;5073053;28;20607;-71
2023/06/22 00:25:42;;;;;;;12.75;11.48;;;17.70;99.90;;;;;;5072576;28;20307;-72
2023/06/22 00:28:09;;;;;;;13.70;12.38;;;17.50;99.90;;;;;;5073207;28;20193;-71
2023/06/22 00:30:36;;;;;;;15.32;11.82;;;17.50;99.90;;;;;;5072207;28;20197;-73
2023/06/22 00:33:07;;;;;;;16.08;13.95;;;17.50;99.90;;;;;;5072931;28;20193;-74
2023/06/22 00:35:34;;;;;;;14.27;12.70;;;17.40;99.90;;;;;;5072829;28;20197;-73
2023/06/22 00:38:02;;;;;;;17.65;15.80;;;17.20;99.90;;;;;;5073004;28;20200;-73
2023/06/22 00:40:28;;;;;;;16.27;14.65;;;17.10;99.90;;;;;;5072784;28;20723;-73
2023/06/22 00:42:56;;;;;;;17.40;14.38;;;17.10;99.90;;;;;;5072818;28;20656;-74
2023/06/22 00:45:23;;;;;;;16.25;14.60;;;17.20;99.90;;;;;;5072647;28;20702;-74
2023/06/22 00:47:50;;;;;;;17.60;15.82;;;17.10;99.90;;;;;;5072727;28;20213;-73
2023/06/22 00:50:21;;;;;;;17.40;15.63;;;17.20;99.90;;;;;;5072642;28;20803;-74
2023/06/22 00:52:51;;;;;;;18.90;15.82;;;17.20;99.90;;;;;;5072708;28;20726;-73
2023/06/22 00:55:19;;;;;;;17.23;15.32;;;17.10;99.90;;;;;;5072531;28;20290;-74
2023/06/22 00:57:47;;;;;;;17.63;14.70;;;17.20;99.90;;;;;;5072694;28;20244;-73
2023/06/22 01:00:16;;;;;;;16.08;14.43;;;17.10;99.90;;;;;;5072544;28;20197;-73
2023/06/22 01:02:45;;;;;;;18.10;15.00;;;17.10;99.90;;;;;;5072086;28;20205;-73
2023/06/22 01:05:13;;;;;;;16.35;14.68;;;17.30;99.90;;;;;;5072609;28;20600;-73
2023/06/22 01:07:49;;;;;;;17.55;14.23;;;17.30;99.90;;;;;;5072609;28;20193;-73
2023/06/22 01:10:22;;;;;;;15.75;13.70;;;17.30;99.90;;;;;;5072463;28;20674;-73
2023/06/22 01:12:53;;;;;;;18.92;14.68;;;17.30;99.90;;;;;;5072488;28;20204;-72
2023/06/22 01:15:26;;;;;;;14.85;13.32;;;17.30;99.90;;;;;;5072569;28;20254;-73
2023/06/22 01:17:54;;;;;;;18.13;14.77;;;17.30;99.90;;;;;;5072579;28;20254;-73
2023/06/22 01:20:22;;;;;;;15.88;14.10;;;17.40;99.90;;;;;;5072294;28;20682;-73
2023/06/22 01:23:06;;;;;;;17.75;13.23;;;17.30;99.90;;;;;;5072366;28;20221;-73
2023/06/22 01:25:54;;;;;;;13.95;12.45;;;17.30;99.90;;;;;;5072154;28;20611;-73
2023/06/22 01:28:36;;;;;;;15.80;14.05;;;17.30;99.90;;;;;;5072536;28;20205;-72
2023/06/22 01:31:05;;;;;;;18.42;13.75;;;17.30;99.90;;;;;;5072275;28;20192;-73
2023/06/22 01:33:35;;;;;;;14.65;13.15;;;17.30;99.90;;;;;;5072292;28;20201;-74
2023/06/22 01:36:02;;;;;;;14.57;13.13;;;17.20;99.90;;;;;;5072198;28;20207;-74
2023/06/22 01:38:30;;;;;;;16.17;13.57;;;17.20;99.90;;;;;;5072388;28;20201;-74
2023/06/22 01:40:58;;;;;;;20.15;14.60;;;17.20;99.90;;;;;;5072042;28;20208;-74
2023/06/22 01:43:26;;;;;;;16.35;14.50;;;17.10;99.90;;;;;;5075453;28;20212;-74
2023/06/22 01:45:54;;;;;;;15.98;14.30;;;17.30;99.90;;;;;;5076089;28;20337;-74
2023/06/22 01:48:22;;;;;;;15.77;13.60;;;17.20;99.90;;;;;;5075969;28;20254;-74
2023/06/22 01:50:49;;;;;;;14.70;13.05;;;17.30;99.90;;;;;;5075951;28;20726;-74
2023/06/22 01:53:16;;;;;;;16.42;14.82;;;17.30;99.90;;;;;;5076045;28;20250;-74
2023/06/22 01:55:43;;;;;;;15.90;14.32;;;17.30;99.90;;;;;;5075775;28;20229;-74
2023/06/22 01:58:09;;;;;;;16.33;14.75;;;17.20;99.90;;;;;;5075748;28;20243;-74
2023/06/22 02:00:41;;;;;;;15.27;13.65;;;17.20;99.90;;;;;;5075811;28;20251;-74
2023/06/22 02:03:15;;;;;;;16.05;14.43;;;17.20;99.90;;;;;;5075566;28;20709;-74
2023/06/22 02:05:50;;;;;;;16.15;14.52;;;17.20;99.90;;;;;;5075673;28;20227;-74
2023/06/22 02:08:20;;;;;;;17.83;14.88;;;17.20;99.90;;;;;;5075750;28;20251;-74
2023/06/22 02:10:49;;;;;;;16.55;13.57;;;17.20;99.90;;;;;;5075675;28;20622;-74
2023/06/22 02:13:17;;;;;;;15.55;14.13;;;17.20;99.90;;;;;;5075514;28;20200;-74
2023/06/22 02:15:44;;;;;;;15.60;14.05;;;17.10;99.90;;;;;;5075721;28;20196;-74
2023/06/22 02:18:13;;;;;;;15.00;13.57;;;17.10;99.90;;;;;;5075469;28;20197;-74
2023/06/22 02:20:40;;;;;;;18.02;14.15;;;17.10;99.90;;;;;;5075434;28;20652;-74
2023/06/22 02:23:07;;;;;;;17.35;15.05;;;17.10;99.90;;;;;;5075529;28;20247;-74
2023/06/22 02:25:34;;;;;;;17.60;15.57;;;17.00;99.90;;;;;;5075515;28;20256;-74
2023/06/22 02:28:01;;;;;;;16.92;15.13;;;17.00;99.90;;;;;;5075546;28;20614;-74
2023/06/22 02:30:28;;;;;;;17.17;15.15;;;17.00;99.90;;;;;;5075254;28;20653;-75
2023/06/22 02:32:58;;;;;;;17.92;14.45;;;16.90;99.90;;;;;;5075203;28;20198;-74
2023/06/22 02:35:26;;;;;;;20.65;15.77;;;16.60;99.90;;;;;;5075263;28;20227;-75
2023/06/22 02:37:54;;;;;;;22.30;15.75;;;16.60;99.90;;;;;;5075112;28;20242;-74
2023/06/22 02:40:20;;;;;;;19.08;16.13;;;16.70;99.90;;;;;;5074938;28;20197;-74
2023/06/22 02:42:47;;;;;;;19.77;15.83;;;16.60;99.90;;;;;;5075222;28;20211;-74
2023/06/22 02:45:14;;;;;;;18.35;16.25;;;16.50;99.90;;;;;;5075138;28;20197;-74
2023/06/22 02:47:40;;;;;;;20.20;15.18;;;16.50;99.90;;;;;;5074676;28;20198;-74
2023/06/22 02:50:07;;;;;;;18.83;16.90;;;16.40;99.90;;;;;;5075013;28;20197;-74
2023/06/22 02:52:35;;;;;;;19.33;16.10;;;16.40;99.90;;;;;;5074913;28;20201;-74
2023/06/22 02:55:02;;;;;;;22.15;16.20;;;16.50;99.90;;;;;;5073822;28;20282;-74
2023/06/22 02:57:30;;;;;;;20.02;17.92;;;16.40;99.90;;;;;;5075007;28;20197;-74
2023/06/22 02:59:57;;;;;;;23.67;16.80;;;16.40;99.90;;;;;;5074606;28;20205;-74
2023/06/22 03:02:23;;;;;;;19.15;17.10;;;16.20;99.90;;;;;;5074784;28;20251;-75
2023/06/22 03:04:53;;;;;;;21.37;17.53;;;16.30;99.90;;;;;;5074550;28;20254;-74
2023/06/22 03:07:20;;;;;;;20.05;17.90;;;16.20;99.90;;;;;;5074530;28;20261;-75
2023/06/22 03:09:48;;;;;;;19.15;16.55;;;16.40;99.90;;;;;;5074480;28;20196;-74
2023/06/22 03:12:14;;;;;;;21.58;17.25;;;16.40;99.90;;;;;;5074697;28;20603;-75
2023/06/22 03:14:41;;;;;;;21.77;16.88;;;16.50;99.90;;;;;;5074541;28;20201;-74
2023/06/22 03:17:07;;;;;;;20.80;17.65;;;16.60;99.90;;;;;;5074468;28;20201;-74
2023/06/22 03:19:35;;;;;;;18.95;16.77;;;16.70;99.90;;;;;;5074303;28;20703;-74
2023/06/22 03:22:01;;;;;;;19.30;17.02;;;16.70;99.90;;;;;;5074202;28;20204;-74
2023/06/22 03:24:29;;;;;;;18.70;16.75;;;16.70;99.90;;;;;;5074222;28;20201;-74
2023/06/22 03:26:57;;;;;;;19.50;17.38;;;16.70;99.90;;;;;;5074359;28;20234;-74
2023/06/22 03:29:25;;;;;;;20.27;18.13;;;16.80;99.90;;;;;;5074262;28;20314;-74
2023/06/22 03:31:51;;;;;;;19.67;17.50;;;16.80;99.90;;;;;;5074128;28;20204;-74
2023/06/22 03:34:18;;;;;;;21.98;17.23;;;16.90;99.90;;;;;;5074056;28;20205;-75
2023/06/22 03:36:46;;;;;;;20.67;17.95;;;16.90;99.90;;;;;;5074040;28;20193;-75
2023/06/22 03:39:12;;;;;;;20.05;17.98;;;17.00;99.90;;;;;;5074022;28;20247;-74
2023/06/22 03:41:39;;;;;;;21.25;19.08;;;17.10;99.90;;;;;;5073986;28;20201;-74
2023/06/22 03:44:10;;;;;;;20.27;17.52;;;17.20;99.90;;;;;;5073817;28;20653;-74
2023/06/22 03:46:37;;;;;;;22.55;19.65;;;17.20;99.90;;;;;;5073672;28;20695;-74
2023/06/22 03:49:03;;;;;;;20.95;18.75;;;17.30;99.90;;;;;;5073771;28;20247;-74
2023/06/22 03:51:30;;;;;;;21.83;19.50;;;17.30;99.90;;;;;;5073655;28;20258;-75
2023/06/22 03:53:56;;;;;;;23.00;20.70;;;17.50;99.90;;;;;;5073654;28;20201;-74
2023/06/22 03:56:23;;;;;;;22.83;20.48;;;17.60;99.90;;;;;;5073858;28;20193;-74
2023/06/22 03:58:50;;;;;;;21.70;19.40;;;17.60;99.90;;;;;;5073577;28;20196;-75
2023/06/22 04:01:19;;;;;;;22.38;19.38;;;17.70;99.90;;;;;;5073208;28;20201;-75
2023/06/22 04:03:48;;;;;;;22.33;20.10;;;17.70;99.90;;;;;;5073389;28;20242;-74
2023/06/22 04:06:14;;;;;;;22.55;20.17;;;17.60;99.90;;;;;;5073501;28;20313;-74
2023/06/22 04:08:42;;;;;;;21.17;18.80;;;17.70;99.90;;;;;;5073526;28;20201;-74
2023/06/22 04:11:08;;;;;;;23.38;18.95;;;17.80;99.90;;;;;;5073506;28;20213;-74
2023/06/22 04:13:35;;;;;;;22.90;19.52;;;17.80;99.90;;;;;;5073290;28;20246;-74
2023/06/22 04:16:02;;;;;;;21.80;19.17;;;17.90;99.90;;;;;;5073226;28;20200;-75
2023/06/22 04:18:30;;;;;;;21.58;18.42;;;17.90;99.90;;;;;;5073140;28;20288;-75
2023/06/22 04:20:56;;;;;;;20.67;18.33;;;18.00;99.90;;;;;;5073414;28;20193;-75
2023/06/22 04:23:23;;;;;;;20.38;17.98;;;18.00;99.90;;;;;;5073286;28;20262;-74
2023/06/22 04:25:50;;;;;;;19.35;17.35;;;18.00;99.90;;;;;;5072871;28;20197;-75
2023/06/22 04:28:16;;;;;;;20.50;18.17;;;18.00;99.90;;;;;;5073002;28;20197;-75
2023/06/22 04:30:47;;;;;;;20.02;17.98;;;18.10;99.90;;;;;;5072815;28;20258;-75
2023/06/22 04:33:14;;;;;;;20.38;18.17;;;18.20;99.90;;;;;;5072860;28;20548;-75
2023/06/22 04:35:42;;;;;;;21.02;18.77;;;18.20;99.90;;;;;;5073081;28;20577;-74
2023/06/22 04:38:10;;;;;;;18.98;17.13;;;18.20;99.90;;;;;;5073033;28;20251;-74
2023/06/22 04:40:37;;;;;;;17.80;15.98;;;18.20;99.90;;;;;;5072903;28;20197;-74
2023/06/22 04:43:03;;;;;;;18.65;16.50;;;18.50;99.90;;;;;;5072791;28;20250;-75
2023/06/22 04:45:30;;;;;;;19.70;17.80;;;18.70;99.90;;;;;;5072748;28;20298;-74
2023/06/22 04:47:56;;;;;;;17.80;16.00;;;18.70;99.90;;;;;;5072967;28;20228;-75
2023/06/22 04:50:23;;;;;;;16.95;15.20;;;18.80;99.90;;;;;;5072857;28;20201;-74
2023/06/22 04:52:52;;;;;;;16.30;14.68;;;18.90;99.90;;;;;;5073015;28;20558;-75
2023/06/22 04:55:19;;;;;;;14.63;13.13;;;19.00;99.90;;;;;;5072487;28;20286;-75
2023/06/22 04:57:48;;;;;;;15.18;13.70;;;19.20;99.90;;;;;;5072908;28;20259;-75
2023/06/22 05:00:17;;;;;;;16.38;14.77;;;19.60;99.90;;;;;;5072508;28;20201;-74
2023/06/22 05:02:44;;;;;;;15.45;13.85;;;19.50;99.90;;;;;;5072959;28;20196;-75
2023/06/22 05:05:13;;;;;;;15.50;14.02;;;19.40;99.90;;;;;;5072763;28;20204;-74
2023/06/22 05:07:42;;;;;;;15.40;12.93;;;19.50;99.90;;;;;;5072445;28;20692;-75
2023/06/22 05:10:12;;;;;;;13.38;11.98;;;19.60;99.90;;;;;;5072526;28;20213;-75
2023/06/22 05:12:39;;;;;;;12.70;11.43;;;19.80;99.90;;;;;;5072415;28;20296;-75
2023/06/22 05:15:07;;;;;;;16.80;12.40;;;19.90;99.90;;;;;;5072732;28;20203;-74
2023/06/22 05:17:34;;;;;;;13.57;12.15;;;20.10;99.90;;;;;;5076464;28;20568;-74
2023/06/22 05:20:00;;;;;;;12.13;11.07;;;20.10;99.90;;;;;;5079005;28;20591;-74
2023/06/22 05:22:27;;;;;;;12.57;11.30;;;20.10;99.90;;;;;;5079033;28;20224;-75
2023/06/22 05:24:53;;;;;;;13.43;12.00;;;20.30;99.90;;;;;;5078977;28;20263;-74
2023/06/22 05:27:21;;;;;;;13.48;12.23;;;20.40;99.90;;;;;;5078853;28;20224;-74
2023/06/22 05:29:48;;;;;;;11.68;10.68;;;20.50;99.90;;;;;;5078905;28;20652;-75
2023/06/22 05:32:14;;;;;;;13.80;12.25;;;20.60;99.90;;;;;;5078824;28;20192;-74
2023/06/22 05:34:41;;;;;;;13.02;11.70;;;20.80;99.90;;;;;;5078867;28;20250;-75
2023/06/22 05:37:09;;;;;;;12.68;11.50;;;20.90;99.90;;;;;;5078937;28;20201;-75
2023/06/22 05:39:37;;;;;;;12.30;11.10;;;21.00;99.90;;;;;;5078811;28;20231;-74
2023/06/22 05:42:05;;;;;;;12.70;11.40;;;21.10;99.90;;;;;;5078826;28;20630;-74
2023/06/22 05:44:33;;;;;;;13.00;11.70;;;21.10;99.90;;;;;;5078970;28;20227;-76
2023/06/22 05:47:00;;;;;;;13.63;12.18;;;21.20;99.90;;;;;;5078606;28;20538;-75
2023/06/22 05:49:29;;;;;;;13.30;12.05;;;21.30;99.90;;;;;;5078526;28;20200;-75
2023/06/22 05:51:56;;;;;;;14.68;13.15;;;21.40;99.90;;;;;;5078552;28;20733;-75
2023/06/22 05:54:23;;;;;;;14.45;12.57;;;21.50;99.90;;;;;;5078558;28;20232;-75
2023/06/22 05:56:49;;;;;;;15.27;11.70;;;21.60;99.90;;;;;;5078654;28;20668;-75
2023/06/22 05:59:16;;;;;;;12.60;11.40;;;21.70;99.90;;;;;;5078793;28;20254;-75
2023/06/22 06:01:44;;;;;;;14.13;12.63;;;21.80;99.90;;;;;;5078802;28;20512;-75
2023/06/22 06:04:11;;;;;;;12.57;11.38;;;21.80;99.90;;;;;;5079057;28;20201;-75
2023/06/22 06:06:38;;;;;;;14.35;11.48;;;21.80;99.90;;;;;;5078570;28;20228;-74
2023/06/22 06:09:06;;;;;;;11.93;10.30;;;22.00;99.90;;;;;;5078499;28;20250;-76
2023/06/22 06:11:33;;;;;;;12.27;11.02;;;22.00;99.90;;;;;;5078637;28;20247;-73
2023/06/22 06:13:59;;;;;;;14.80;11.25;;;22.10;99.90;;;;;;5078630;28;20197;-73
2023/06/22 06:16:26;;;;;;;12.15;10.48;;;22.20;99.90;;;;;;5078203;28;20254;-73
2023/06/22 06:18:55;;;;;;;10.75;9.75;;;22.40;99.90;;;;;;5078664;28;20242;-74
2023/06/22 06:21:22;;;;;;;11.63;10.32;;;22.50;99.90;;;;;;5078222;28;20196;-73
2023/06/22 06:23:49;;;;;;;9.95;9.02;;;22.60;99.90;;;;;;5078728;28;20207;-72
2023/06/22 06:26:16;;;;;;;10.95;9.80;;;22.70;99.90;;;;;;5078598;28;20197;-72
2023/06/22 06:28:43;;;;;;;12.05;10.27;;;22.80;99.90;;;;;;5075750;28;20201;-72
2023/06/22 06:31:09;;;;;;;11.55;10.32;;;22.70;99.90;;;;;;5075299;28;20718;-73
2023/06/22 06:33:36;;;;;;;10.15;8.85;;;22.90;99.90;;;;;;5075374;28;20264;-73
2023/06/22 06:36:04;;;;;;;10.32;9.43;;;22.90;99.90;;;;;;5075278;28;20251;-73
2023/06/22 06:38:31;;;;;;;10.07;9.10;;;23.00;99.90;;;;;;5075219;28;20661;-73
2023/06/22 06:40:59;;;;;;;10.60;9.50;;;23.10;99.90;;;;;;5075123;28;20314;-73
2023/06/22 06:43:26;;;;;;;10.63;8.75;;;23.20;99.90;;;;;;5074985;28;20243;-73
2023/06/22 06:45:52;;;;;;;10.63;9.60;;;23.30;99.90;;;;;;5075019;28;20250;-73
2023/06/22 06:48:19;;;;;;;11.98;10.02;;;23.30;99.90;;;;;;5074811;28;20228;-73
2023/06/22 06:50:45;;;;;;;10.45;8.85;;;23.40;99.90;;;;;;5074963;28;20197;-73
2023/06/22 06:53:13;;;;;;;9.90;8.90;;;23.40;99.90;;;;;;5075001;28;20197;-73
2023/06/22 06:55:40;;;;;;;9.75;8.75;;;23.50;99.90;;;;;;5074649;28;20232;-73
2023/06/22 06:58:09;;;;;;;9.80;8.82;;;23.70;99.90;;;;;;5075118;28;20201;-73
2023/06/22 07:00:36;;;;;;;9.85;8.65;;;23.80;99.90;;;;;;5074890;28;20236;-74
2023/06/22 07:03:03;;;;;;;9.05;8.15;;;23.90;99.90;;;;;;5074387;28;20223;-73
2023/06/22 07:05:29;;;;;;;11.80;8.73;;;24.00;99.90;;;;;;5074682;28;20227;-74
2023/06/22 07:07:56;;;;;;;12.60;8.55;;;24.10;99.90;;;;;;5074587;28;20224;-73
2023/06/22 07:10:24;;;;;;;10.00;8.05;;;24.20;99.90;;;;;;5074584;28;20227;-73
2023/06/22 07:12:51;;;;;;;8.95;8.10;;;24.20;99.90;;;;;;5074532;28;20255;-73
2023/06/22 07:15:18;;;;;;;11.98;8.15;;;24.40;99.90;;;;;;5074286;28;20259;-73
2023/06/22 07:17:44;;;;;;;10.98;8.50;;;24.50;99.90;;;;;;5074632;28;20255;-73
2023/06/22 07:20:12;;;;;;;9.60;7.70;;;24.50;99.90;;;;;;5074382;28;20254;-73
2023/06/22 07:22:39;;;;;;;8.93;8.02;;;24.60;99.90;;;;;;5074303;28;20332;-73
2023/06/22 07:25:09;;;;;;;7.85;7.15;;;24.70;99.90;;;;;;5074265;28;20204;-73
2023/06/22 07:27:38;;;;;;;8.82;7.65;;;24.80;99.90;;;;;;5074093;28;20228;-73
2023/06/22 07:30:06;;;;;;;8.63;7.63;;;24.90;99.90;;;;;;5074098;28;20197;-73
2023/06/22 07:32:33;;;;;;;8.35;7.47;;;24.90;99.90;;;;;;5074183;28;20258;-73
2023/06/22 07:34:59;;;;;;;8.25;6.90;;;24.90;99.90;;;;;;5074048;28;20199;-73
2023/06/22 07:37:27;;;;;;;10.57;7.53;;;25.00;99.90;;;;;;5073993;28;20197;-73
2023/06/22 07:39:58;;;;;;;8.85;7.53;;;25.20;99.90;;;;;;5073384;28;20205;-72
2023/06/22 07:42:25;;;;;;;7.97;7.15;;;25.30;99.90;;;;;;5073863;28;20250;-73
2023/06/22 07:44:53;;;;;;;8.77;7.57;;;25.40;99.90;;;;;;5074050;28;20197;-73
2023/06/22 07:47:20;;;;;;;7.53;6.80;;;25.40;99.90;;;;;;5073755;28;20225;-73
2023/06/22 07:49:46;;;;;;;10.40;6.95;;;25.50;99.90;;;;;;5073870;28;20197;-73
2023/06/22 07:52:13;;;;;;;9.20;7.22;;;25.50;99.90;;;;;;5074208;28;20266;-73
2023/06/22 07:54:40;;;;;;;9.85;7.05;;;25.50;99.90;;;;;;5073637;28;20243;-73
2023/06/22 07:57:07;;;;;;;11.13;6.95;;;25.80;99.90;;;;;;5073760;28;20601;-73
2023/06/22 07:59:33;;;;;;;9.30;6.82;;;25.80;99.90;;;;;;5072780;28;20204;-73
2023/06/22 08:02:03;;;;;;;10.25;6.60;;;26.10;99.90;;;;;;5073577;28;20262;-73
2023/06/22 08:04:30;;;;;;;7.57;6.75;;;26.30;99.90;;;;;;5073642;28;20208;-73
2023/06/22 08:06:57;;;;;;;8.07;6.28;;;26.60;99.90;;;;;;5073438;28;20201;-74
2023/06/22 08:09:24;;;;;;;12.63;6.63;;;26.70;99.90;;;;;;5073531;28;20216;-73
2023/06/22 08:11:50;;;;;;;8.80;6.80;;;26.40;99.90;;;;;;5073273;28;20200;-73
2023/06/22 08:14:17;;;;;;;9.02;6.93;;;26.40;99.90;;;;;;5073645;28;20201;-72
2023/06/22 08:16:43;;;;;;;7.20;6.40;;;26.60;99.90;;;;;;5072683;28;20255;-73
2023/06/22 08:19:11;;;;;;;8.80;6.93;;;26.80;99.90;;;;;;5073224;28;20205;-73
2023/06/22 08:21:38;;;;;;;8.68;6.72;;;27.10;99.90;;;;;;5073240;28;20259;-73
2023/06/22 08:24:07;;;;;;;8.05;6.70;;;27.10;99.90;;;;;;5073236;28;20201;-71
2023/06/22 08:26:36;;;;;;;10.50;6.15;;;27.40;99.90;;;;;;5073263;28;20193;-72
2023/06/22 08:29:03;;;;;;;9.82;6.80;;;27.60;99.90;;;;;;5073091;28;20320;-72
2023/06/22 08:31:29;;;;;;;8.65;6.30;;;27.70;99.90;;;;;;5072435;28;20245;-75
2023/06/22 08:33:56;;;;;;;7.40;6.70;;;27.90;99.90;;;;;;5072133;28;20222;-72
2023/06/22 08:36:24;;;;;;;7.30;6.07;;;28.10;99.90;;;;;;5072222;28;20702;-74
2023/06/22 08:38:53;;;;;;;7.95;6.55;;;28.10;99.90;;;;;;5070963;28;20250;-75
2023/06/22 08:41:19;;;;;;;8.73;6.80;;;28.20;99.90;;;;;;5073063;28;20194;-76
2023/06/22 08:43:46;;;;;;;8.90;6.35;;;28.20;99.90;;;;;;5072870;28;20201;-75
2023/06/22 08:46:13;;;;;;;10.90;5.60;;;28.20;99.90;;;;;;5072675;28;20252;-73
2023/06/22 08:48:39;;;;;;;9.82;6.47;;;28.30;99.90;;;;;;5072601;28;20232;-73
2023/06/22 08:51:06;;;;;;;11.05;6.68;;;28.40;99.90;;;;;;5072253;28;20243;-76
2023/06/22 08:53:34;;;;;;;6.93;5.97;;;28.50;99.90;;;;;;5072391;28;20611;-78
2023/06/22 08:56:01;;;;;;;7.43;5.95;;;28.40;99.90;;;;;;5072812;28;20301;-78
2023/06/22 08:58:28;;;;;;;7.32;6.43;;;28.70;99.90;;;;;;5073786;28;20250;-74
2023/06/22 09:00:54;;;;;;;8.18;6.13;;;28.80;99.90;;;;;;5072595;28;20266;-75
2023/06/22 09:03:21;;;;;;;9.02;6.00;;;29.10;99.90;;;;;;5072468;28;20205;-75
2023/06/22 09:05:48;;;;;;;12.07;6.28;;;29.50;99.90;;;;;;5072579;28;20240;-75
2023/06/22 09:08:14;;;;;;;7.35;6.35;;;29.40;99.90;;;;;;5072496;28;20773;-75
2023/06/22 09:10:42;;;;;;;8.30;6.50;;;29.50;99.90;;;;;;5072831;28;20276;-75
2023/06/22 09:13:09;;;;;;;10.02;6.55;;;29.20;99.90;;;;;;5072742;28;20192;-75
2023/06/22 09:15:35;;;;;;;11.77;7.07;;;29.20;99.90;;;;;;5072689;28;20197;-75
2023/06/22 09:18:02;;;;;;;8.25;6.18;;;29.40;99.90;;;;;;5072676;28;20325;-75
2023/06/22 09:20:29;;;;;;;24.25;7.45;;;29.40;99.90;;;;;;5072499;28;20197;-75
2023/06/22 09:22:55;;;;;;;13.27;6.22;;;29.80;99.90;;;;;;5072465;28;20197;-75
2023/06/22 09:25:22;;;;;;;9.00;6.60;;;30.30;99.90;;;;;;5072167;28;20670;-74
2023/06/22 09:27:50;;;;;;;10.07;6.28;;;30.30;99.90;;;;;;5072564;28;20216;-74
2023/06/22 09:30:16;;;;;;;8.50;6.47;;;30.50;99.90;;;;;;5072627;28;20192;-75
2023/06/22 09:32:43;;;;;;;11.52;6.13;;;30.40;99.90;;;;;;5072467;28;20201;-74
2023/06/22 09:35:12;;;;;;;8.68;6.53;;;30.80;99.90;;;;;;5072066;28;20387;-74
2023/06/22 09:37:39;;;;;;;12.18;6.30;;;31.30;99.90;;;;;;5072449;28;20205;-75
2023/06/22 09:40:10;;;;;;;9.98;6.10;;;31.50;99.90;;;;;;5072479;28;20254;-74
2023/06/22 09:42:37;;;;;;;11.93;5.82;;;31.60;99.00;;;;;;5072099;28;20204;-74
2023/06/22 09:45:06;;;;;;;9.65;5.90;;;31.70;99.00;;;;;;5072265;28;20250;-74
2023/06/22 09:47:32;;;;;;;9.35;5.97;;;31.90;97.70;;;;;;5072018;28;20258;-74
2023/06/22 09:49:59;;;;;;;10.48;6.22;;;31.70;97.40;;;;;;5072440;28;20235;-74
2023/06/22 09:52:26;;;;;;;10.57;6.32;;;31.70;97.90;;;;;;5071990;28;20185;-74
2023/06/22 09:54:53;;;;;;;8.68;5.70;;;32.00;97.40;;;;;;5070339;28;20873;-81
2023/06/22 09:57:19;;;;;;;8.23;6.30;;;32.60;96.60;;;;;;5072228;28;20201;-81
2023/06/22 09:59:46;;;;;;;7.63;5.82;;;33.10;95.00;;;;;;5071909;28;20627;-80
2023/06/22 10:02:14;;;;;;;11.75;6.05;;;33.50;93.80;;;;;;5072005;28;20201;-81
2023/06/22 10:04:41;;;;;;;10.25;5.90;;;33.80;92.40;;;;;;5075582;28;20554;-82
2023/06/22 10:07:07;;;;;;;8.32;5.57;;;34.00;92.10;;;;;;5075600;28;20193;-80
2023/06/22 10:09:34;;;;;;;8.90;5.93;;;34.50;90.80;;;;;;5075333;28;20223;-82
2023/06/22 10:12:01;;;;;;;11.48;5.63;;;34.80;89.20;;;;;;5075672;28;20269;-72
2023/06/22 10:14:29;;;;;;;9.88;5.53;;;35.00;87.70;;;;;;5075473;28;20193;-75
2023/06/22 10:16:56;;;;;;;7.47;5.50;;;34.30;83.20;;;;;;5075078;28;20668;-75
2023/06/22 10:19:24;;;;;;;10.27;5.50;;;33.90;81.90;;;;;;5075320;28;20197;-74
2023/06/22 10:21:50;;;;;;;13.45;6.20;;;33.80;81.60;;;;;;5075562;28;20243;-75
2023/06/22 10:24:17;;;;;;;10.75;5.93;;;34.60;81.00;;;;;;5075401;28;20247;-75
2023/06/22 10:26:43;;;;;;;7.80;5.40;;;34.60;76.70;;;;;;5075422;28;20200;-75
2023/06/22 10:29:10;;;;;;;11.50;5.95;;;34.70;77.60;;;;;;5074939;28;20217;-75
2023/06/22 10:31:37;;;;;;;9.57;5.57;;;35.20;76.10;;;;;;5075388;28;20219;-74
2023/06/22 10:34:03;;;;;;;7.95;5.07;;;35.40;72.40;;;;;;5075287;28;20276;-74
2023/06/22 10:36:31;;;;;;;12.02;5.57;;;35.20;71.20;;;;;;5075237;28;20231;-75
2023/06/22 10:38:59;;;;;;;9.93;5.40;;;36.00;70.10;;;;;;5075141;28;20618;-75
2023/06/22 10:41:25;;;;;;;11.13;5.38;;;35.50;68.30;;;;;;5075330;28;20242;-80
2023/06/22 10:43:52;;;;;;;10.13;5.70;;;35.70;66.90;;;;;;5075322;28;20541;-75
2023/06/22 10:46:19;;;;;;;9.13;4.88;;;36.10;66.30;;;;;;5076899;28;20197;-74
2023/06/22 10:48:45;;;;;;;8.68;5.20;;;36.00;65.10;;;;;;5090353;28;20273;-73
2023/06/22 10:51:12;;;;;;;10.75;5.70;;;36.70;64.20;;;;;;5095396;28;20192;-73
2023/06/22 10:53:40;;;;;;;12.98;5.20;;;37.40;62.20;;;;;;5095103;28;20195;-74
2023/06/22 10:56:06;;;;;;;12.00;5.38;;;37.70;59.50;;;;;;5092036;28;20644;-73
2023/06/22 10:58:33;;;;;;;7.90;5.22;;;37.60;58.00;;;;;;5074699;28;20205;-73
2023/06/22 11:01:00;;;;;;;9.27;4.88;;;38.00;57.80;;;;;;5074801;28;20196;-74
2023/06/22 11:03:26;;;;;;;9.82;5.45;;;38.20;55.80;;;;;;5075055;28;20200;-74
2023/06/22 11:05:53;;;;;;;7.97;5.05;;;38.40;54.90;;;;;;5074304;28;20205;-74
2023/06/22 11:08:19;;;;;;;8.27;5.35;;;38.90;54.30;;;;;;5074224;28;20278;-74
2023/06/22 11:10:47;;;;;;;17.05;5.93;;;39.90;52.00;;;;;;5074511;28;20204;-74
2023/06/22 11:13:14;;;;;;;9.52;5.10;;;38.90;49.20;;;;;;5074695;28;20274;-74
2023/06/22 11:15:41;;;;;;;10.73;5.35;;;39.20;50.50;;;;;;5073539;28;20603;-74
2023/06/22 11:18:07;;;;;;;9.32;5.07;;;40.30;49.10;;;;;;5074558;28;20197;-74
2023/06/22 11:20:38;;;;;;;9.32;5.18;;;40.70;46.90;;;;;;5074563;28;20333;-74
2023/06/22 11:23:06;;;;;;;8.48;5.18;;;39.90;46.60;;;;;;5074412;28;20192;-74
2023/06/22 11:25:34;;;;;;;12.32;5.25;;;40.50;46.10;;;;;;5073502;28;20200;-74
2023/06/22 11:28:03;;;;;;;9.15;5.20;;;40.80;44.40;;;;;;5073301;28;20205;-74
2023/06/22 11:30:29;;;;;;;14.80;6.03;;;39.90;44.20;;;;;;5074165;28;20197;-74
2023/06/22 11:32:57;;;;;;;8.20;5.00;;;39.80;45.10;;;;;;5073787;28;20197;-75
2023/06/22 11:35:24;;;;;;;7.40;5.03;;;39.90;44.00;;;;;;5073741;28;20200;-74
2023/06/22 11:37:50;;;;;;;10.13;5.57;;;40.20;43.50;;;;;;5074103;28;20258;-74
2023/06/22 11:40:17;;;;;;;12.98;5.20;;;40.10;42.30;;;;;;5074086;28;20215;-75
2023/06/22 11:42:44;;;;;;;10.20;5.50;;;41.10;41.70;;;;;;5074183;28;20203;-75
2023/06/22 11:45:13;;;;;;;11.82;5.22;;;41.30;41.10;;;;;;5074008;28;20610;-75
2023/06/22 11:47:39;;;;;;;8.15;4.90;;;42.00;39.30;;;;;;5073716;28;20192;-74
2023/06/22 11:50:07;;;;;;;11.20;5.30;;;42.50;38.70;;;;;;5073716;28;20228;-76
2023/06/22 11:52:35;;;;;;;9.88;4.90;;;43.10;37.60;;;;;;5073555;28;20196;-75
2023/06/22 11:55:03;;;;;;;11.48;5.30;;;43.50;35.70;;;;;;5073232;28;20274;-75
2023/06/22 11:57:30;;;;;;;10.75;5.75;;;42.90;35.40;;;;;;5073568;28;20296;-75
2023/06/22 11:59:56;;;;;;;13.00;5.07;;;42.80;34.20;;;;;;5073726;28;20201;-75
2023/06/22 12:02:24;;;;;;;9.55;4.90;;;41.70;34.60;;;;;;5073590;28;20200;-75
2023/06/22 12:04:52;;;;;;;10.90;5.15;;;42.20;33.40;;;;;;5073441;28;20258;-74
2023/06/22 12:07:19;;;;;;;11.00;5.47;;;42.80;32.40;;;;;;5073539;28;20200;-76
2023/06/22 12:09:45;;;;;;;12.38;4.97;;;41.80;33.20;;;;;;5072605;28;20220;-73
2023/06/22 12:12:12;;;;;;;13.10;5.60;;;41.30;33.70;;;;;;5073426;28;20277;-74
2023/06/22 12:14:38;;;;;;;14.57;5.63;;;41.50;33.90;;;;;;5073575;28;20197;-73
2023/06/22 12:17:05;;;;;;;13.43;5.88;;;41.60;33.00;;;;;;5073387;28;20193;-73
2023/06/22 12:19:33;;;;;;;11.10;5.35;;;40.60;34.00;;;;;;5069283;28;20276;-74
2023/06/22 12:21:59;;;;;;;10.30;5.50;;;41.10;34.10;;;;;;5056731;28;20193;-74
2023/06/22 12:24:26;;;;;;;11.13;5.70;;;41.30;33.60;;;;;;5067040;28;20200;-74
2023/06/22 12:26:53;;;;;;;12.98;5.35;;;42.30;32.90;;;;;;5071585;28;20204;-78
2023/06/22 12:29:19;;;;;;;10.15;5.07;;;43.30;31.50;;;;;;5070969;28;20924;-74
2023/06/22 12:31:46;;;;;;;10.13;5.70;;;43.70;30.90;;;;;;5072161;28;20200;-75
2023/06/22 12:34:12;;;;;;;12.73;5.53;;;43.40;29.50;;;;;;5072598;28;20663;-76